Time;durP1;ratioP1;P1;durP2;ratioP2;P2;SDS_P1;SDS_P2;PMS_P1;PMS_P2;Temp;Humidity;BMP_temperature;BMP_pressure;BME280_temperature;BME280_humidity;BME280_pressure;Samples;Min_cycle;Max_cycle;Signal;HPM_P1;HPM_P2
2023/10/13 00:00:57;;;;;;;5.05;3.55;;;19.50;70.00;;;;;;4992747;28;20093;-25
2023/10/13 00:03:25;;;;;;;5.68;3.65;;;19.50;73.80;;;;;;4976315;28;20102;-25
2023/10/13 00:05:53;;;;;;;6.43;3.92;;;;;;;;;;4973115;28;20062;-26
2023/10/13 00:08:20;;;;;;;5.32;3.60;;;19.60;74.50;;;;;;4972762;28;20575;-26
2023/10/13 00:10:48;;;;;;;7.00;4.15;;;;;;;;;;4972039;28;20055;-25
2023/10/13 00:13:15;;;;;;;6.30;3.75;;;20.40;88.20;;;;;;4973089;28;20485;-26
2023/10/13 00:15:52;;;;;;;4.82;3.72;;;;;;;;;;4972973;28;20055;-26
2023/10/13 00:18:21;;;;;;;6.82;3.63;;;19.50;70.10;;;;;;4972700;28;20061;-25
2023/10/13 00:20:50;;;;;;;5.78;3.88;;;19.20;80.20;;;;;;4972811;28;20058;-25
2023/10/13 00:23:20;;;;;;;4.47;3.28;;;18.60;74.90;;;;;;4972918;28;20086;-26
2023/10/13 00:25:56;;;;;;;5.00;3.70;;;19.30;87.90;;;;;;4973089;28;20508;-26
2023/10/13 00:28:24;;;;;;;4.30;3.35;;;19.80;88.20;;;;;;4972498;28;20113;-26
2023/10/13 00:30:52;;;;;;;5.45;3.80;;;20.50;79.20;;;;;;4973055;28;20562;-26
2023/10/13 00:33:22;;;;;;;6.10;3.60;;;19.30;86.50;;;;;;4972882;28;20050;-26
2023/10/13 00:35:51;;;;;;;4.82;3.67;;;19.00;80.10;;;;;;4972774;28;20051;-26
2023/10/13 00:38:19;;;;;;;5.40;3.97;;;19.90;88.20;;;;;;4972468;28;20082;-26
2023/10/13 00:40:51;;;;;;;5.22;3.72;;;19.00;87.80;;;;;;4973141;28;20054;-25
2023/10/13 00:43:34;;;;;;;4.88;3.72;;;19.70;87.80;;;;;;4972788;28;20050;-26
2023/10/13 00:46:07;;;;;;;4.40;3.60;;;19.50;70.20;;;;;;4972733;28;20050;-27
2023/10/13 00:48:42;;;;;;;6.18;3.90;;;19.60;87.80;;;;;;4972821;28;20187;-25
2023/10/13 00:51:16;;;;;;;4.70;3.70;;;20.10;78.60;;;;;;4972989;28;20066;-26
2023/10/13 00:53:44;;;;;;;5.10;3.90;;;;;;;;;;4972358;28;20066;-26
2023/10/13 00:56:19;;;;;;;7.10;4.18;;;;;;;;;;4981225;28;20093;-26
2023/10/13 00:58:46;;;;;;;5.45;4.43;;;19.30;72.60;;;;;;4984746;28;20570;-26
2023/10/13 01:01:18;;;;;;;5.40;3.88;;;19.60;79.90;;;;;;4973483;28;20110;-25
2023/10/13 01:03:48;;;;;;;5.40;4.10;;;19.10;75.30;;;;;;4976251;28;20050;-26
2023/10/13 01:06:16;;;;;;;4.82;3.67;;;19.20;87.70;;;;;;4976420;28;20051;-26
2023/10/13 01:08:44;;;;;;;5.25;3.92;;;;;;;;;;4976183;28;20436;-26
2023/10/13 01:11:11;;;;;;;5.57;4.07;;;19.10;87.60;;;;;;4975879;28;20125;-26
2023/10/13 01:13:37;;;;;;;5.13;4.28;;;19.50;81.20;;;;;;4976360;28;20054;-26
2023/10/13 01:16:07;;;;;;;4.50;3.80;;;19.40;75.60;;;;;;4976003;28;20053;-26
2023/10/13 01:18:39;;;;;;;4.90;4.07;;;19.10;81.50;;;;;;4976013;28;20651;-26
2023/10/13 01:21:09;;;;;;;6.22;4.32;;;18.60;69.90;;;;;;4976102;28;20078;-26
2023/10/13 01:23:38;;;;;;;5.43;4.10;;;18.50;83.20;;;;;;4975887;28;20051;-25
2023/10/13 01:26:06;;;;;;;4.97;4.28;;;19.30;82.20;;;;;;4975567;28;20050;-26
2023/10/13 01:28:44;;;;;;;5.40;4.20;;;;;;;;;;4975407;28;20531;-26
2023/10/13 01:31:12;;;;;;;6.03;4.32;;;19.70;82.70;;;;;;4975731;28;20050;-26
2023/10/13 01:33:39;;;;;;;5.55;3.90;;;;;;;;;;4975770;28;20050;-26
2023/10/13 01:36:09;;;;;;;6.65;4.43;;;19.00;87.80;;;;;;4975244;28;20047;-25
2023/10/13 01:38:38;;;;;;;5.00;4.00;;;20.30;88.60;;;;;;4975584;28;20046;-26
2023/10/13 01:41:08;;;;;;;6.50;4.50;;;19.40;70.50;;;;;;4975839;28;20459;-26
2023/10/13 01:43:34;;;;;;;7.93;4.43;;;19.50;79.30;;;;;;4975159;28;20054;-26
2023/10/13 01:46:03;;;;;;;7.10;4.30;;;20.10;88.60;;;;;;4975701;28;20133;-26
2023/10/13 01:48:32;;;;;;;5.13;4.05;;;18.80;87.80;;;;;;4975298;28;20468;-26
2023/10/13 01:51:00;;;;;;;5.93;4.65;;;19.70;74.70;;;;;;4975487;28;20051;-25
2023/10/13 01:53:28;;;;;;;6.32;4.18;;;;;;;;;;4975644;28;20057;-25
2023/10/13 01:55:58;;;;;;;5.25;4.32;;;19.30;72.90;;;;;;4975380;28;20050;-26
2023/10/13 01:58:26;;;;;;;4.90;4.30;;;18.50;88.50;;;;;;4975287;28;20057;-25
2023/10/13 02:00:52;;;;;;;5.22;4.40;;;18.90;87.90;;;;;;4974795;28;20044;-25
2023/10/13 02:03:21;;;;;;;5.35;4.40;;;;;;;;;;4975464;28;20050;-26
2023/10/13 02:05:48;;;;;;;5.15;4.35;;;18.40;82.80;;;;;;4975188;28;20042;-26
2023/10/13 02:08:22;;;;;;;4.88;4.18;;;;;;;;;;4975073;28;20050;-26
2023/10/13 02:10:49;;;;;;;5.07;4.40;;;;;;;;;;4975425;28;20412;-26
2023/10/13 02:13:17;;;;;;;5.10;4.40;;;19.60;77.80;;;;;;4974602;28;20043;-26
2023/10/13 02:15:45;;;;;;;5.45;4.20;;;19.30;88.60;;;;;;4975211;28;20050;-26
2023/10/13 02:18:13;;;;;;;6.18;4.45;;;19.40;70.70;;;;;;4973448;28;20082;-27
2023/10/13 02:20:45;;;;;;;4.85;4.15;;;;;;;;;;4975014;28;20053;-27
2023/10/13 02:23:11;;;;;;;4.75;4.25;;;19.90;79.70;;;;;;4974685;28;20051;-25
2023/10/13 02:25:45;;;;;;;5.35;4.45;;;19.60;86.90;;;;;;4975025;28;20042;-25
2023/10/13 02:28:13;;;;;;;5.35;3.92;;;19.70;76.60;;;;;;4974748;28;20058;-26
2023/10/13 02:30:44;;;;;;;5.85;4.00;;;19.20;70.60;;;;;;4974803;28;20057;-26
2023/10/13 02:33:11;;;;;;;5.47;4.55;;;19.40;70.70;;;;;;4955671;28;20063;-26
2023/10/13 02:35:43;;;;;;;6.63;4.38;;;19.10;70.90;;;;;;4955601;28;20465;-26
2023/10/13 02:38:11;;;;;;;5.38;4.35;;;20.20;88.90;;;;;;4973215;28;20064;-25
2023/10/13 02:40:38;;;;;;;4.68;4.10;;;18.90;88.40;;;;;;4974587;28;20042;-25
2023/10/13 02:43:05;;;;;;;5.22;3.90;;;19.60;88.40;;;;;;4974428;28;20097;-26
2023/10/13 02:45:35;;;;;;;4.43;3.95;;;19.30;88.80;;;;;;4974486;28;20085;-25
2023/10/13 02:48:13;;;;;;;5.85;4.25;;;19.00;88.50;;;;;;4974220;28;20046;-25
2023/10/13 02:50:43;;;;;;;6.15;4.55;;;18.40;87.90;;;;;;4974526;28;20058;-26
2023/10/13 02:53:12;;;;;;;4.68;4.20;;;19.50;74.30;;;;;;4974462;28;20054;-26
2023/10/13 02:55:40;;;;;;;5.68;4.15;;;19.40;70.80;;;;;;4974109;28;20101;-26
2023/10/13 02:58:08;;;;;;;5.60;4.68;;;;;;;;;;4973844;28;20049;-27
2023/10/13 03:00:40;;;;;;;4.60;4.18;;;;;;;;;;4974427;28;20050;-26
2023/10/13 03:03:07;;;;;;;5.30;4.40;;;19.30;70.80;;;;;;4974226;28;20082;-27
2023/10/13 03:05:38;;;;;;;5.45;4.40;;;19.30;88.50;;;;;;4973872;28;20043;-25
2023/10/13 03:08:05;;;;;;;6.05;4.60;;;19.10;72.70;;;;;;4974142;28;20130;-26
2023/10/13 03:10:33;;;;;;;6.10;4.60;;;19.60;88.60;;;;;;4974389;28;20095;-26
2023/10/13 03:12:59;;;;;;;5.25;4.47;;;19.20;88.70;;;;;;4973688;28;20082;-26
2023/10/13 03:15:30;;;;;;;6.93;4.63;;;20.00;82.10;;;;;;4974000;28;20145;-26
2023/10/13 03:17:58;;;;;;;4.70;4.07;;;19.10;88.80;;;;;;4973468;28;20057;-25
2023/10/13 03:20:31;;;;;;;5.25;4.43;;;19.60;85.10;;;;;;4974046;28;20046;-25
2023/10/13 03:22:57;;;;;;;4.75;3.90;;;19.10;84.10;;;;;;4973700;28;20559;-26
2023/10/13 03:25:29;;;;;;;5.43;4.07;;;19.60;81.00;;;;;;4973266;28;20046;-26
2023/10/13 03:28:01;;;;;;;5.07;4.55;;;19.20;70.90;;;;;;4973393;28;20134;-26
2023/10/13 03:30:35;;;;;;;5.95;4.00;;;;;;;;;;4973322;28;20051;-26
2023/10/13 03:33:07;;;;;;;5.38;4.20;;;19.50;89.50;;;;;;4973682;28;20548;-27
2023/10/13 03:35:40;;;;;;;4.43;4.03;;;19.90;89.80;;;;;;4973851;28;20054;-27
2023/10/13 03:38:14;;;;;;;5.47;4.30;;;19.90;89.70;;;;;;4972734;28;20054;-27
2023/10/13 03:40:41;;;;;;;4.85;4.10;;;19.00;88.40;;;;;;4973629;28;20130;-27
2023/10/13 03:43:10;;;;;;;4.70;4.18;;;;;;;;;;4973439;28;20562;-26
2023/10/13 03:45:38;;;;;;;5.57;4.20;;;19.30;88.60;;;;;;4973499;28;20094;-26
2023/10/13 03:48:08;;;;;;;4.28;3.88;;;19.70;89.10;;;;;;4972433;28;20050;-27
2023/10/13 03:50:37;;;;;;;4.45;3.97;;;20.20;89.10;;;;;;4973360;28;20050;-26
2023/10/13 03:53:06;;;;;;;5.40;4.38;;;19.30;88.90;;;;;;4973376;28;20066;-27
2023/10/13 03:55:35;;;;;;;5.00;4.20;;;;;;;;;;4973026;28;20051;-26
2023/10/13 03:58:03;;;;;;;5.40;4.13;;;19.20;88.60;;;;;;4972906;28;20496;-27
2023/10/13 04:00:31;;;;;;;4.63;4.20;;;19.10;88.50;;;;;;4973266;28;20460;-26
2023/10/13 04:03:09;;;;;;;4.40;4.00;;;19.00;88.50;;;;;;4972592;28;20404;-27
2023/10/13 04:05:40;;;;;;;5.45;4.10;;;19.50;88.80;;;;;;4973266;28;20061;-26
2023/10/13 04:16:47;;;;;;;;;;;19.30;70.90;;;;;;4972877;28;20530;-26
2023/10/13 04:19:22;;;;;;;4.72;4.00;;;18.90;88.30;;;;;;4973281;28;19922;-27
2023/10/13 04:22:13;;;;;;;4.13;3.72;;;19.50;89.40;;;;;;4972538;28;20105;-27
2023/10/13 04:25:00;;;;;;;5.05;3.78;;;19.10;89.20;;;;;;4972838;28;20137;-27
2023/10/13 04:27:55;;;;;;;4.65;4.05;;;19.00;89.20;;;;;;4972988;28;20058;-27
2023/10/13 04:30:27;;;;;;;4.43;3.70;;;19.50;80.60;;;;;;4971626;28;20051;-27
2023/10/13 04:35:47;;;;;;;4.00;3.60;;;;;;;;;;4974699;28;20066;-27
2023/10/13 04:38:19;;;;;;;4.28;3.88;;;19.40;75.10;;;;;;4976020;28;20125;-27
2023/10/13 04:41:01;;;;;;;5.13;4.15;;;19.00;87.20;;;;;;4976841;28;20134;-26
2023/10/13 04:43:33;;;;;;;4.88;3.55;;;;;;;;;;4976822;28;20047;-26
2023/10/13 04:46:14;;;;;;;4.55;3.75;;;19.30;89.30;;;;;;4976699;28;20052;-27
2023/10/13 04:48:46;;;;;;;4.80;4.00;;;19.60;88.90;;;;;;4975527;28;20063;-26
2023/10/13 04:51:49;;;;;;;5.45;3.90;;;18.80;89.40;;;;;;4976678;28;20042;-27
2023/10/13 04:54:25;;;;;;;5.72;4.10;;;19.40;88.80;;;;;;4975944;28;20484;-27
2023/10/13 04:57:23;;;;;;;4.20;3.72;;;19.60;89.40;;;;;;4990629;28;20046;-27
2023/10/13 05:05:45;;;;;;;4.38;3.80;;;20.20;85.30;;;;;;4996111;28;20380;-27
2023/10/13 05:47:46;;;;;;;3.50;3.10;;;19.40;89.60;;;;;;4974837;28;20058;-28
2023/10/13 05:50:29;;;;;;;4.05;3.38;;;19.30;75.30;;;;;;4975359;28;20054;-28
2023/10/13 06:28:45;;;;;;;3.38;2.88;;;18.70;89.50;;;;;;4982426;28;20066;-26
2023/10/13 06:31:21;;;;;;;4.82;3.15;;;18.70;72.00;;;;;;4974273;28;20051;-25
2023/10/13 06:33:49;;;;;;;3.80;2.90;;;19.50;78.00;;;;;;4972866;28;20050;-26
2023/10/13 06:36:17;;;;;;;3.15;2.40;;;18.20;83.70;;;;;;4976566;28;20043;-26
2023/10/13 06:38:44;;;;;;;2.92;2.63;;;19.60;89.80;;;;;;4973612;28;20049;-25
2023/10/13 06:41:19;;;;;;;2.67;2.47;;;19.20;89.70;;;;;;4972879;28;20046;-26
2023/10/13 06:43:58;;;;;;;2.50;2.30;;;19.40;89.20;;;;;;4973099;28;20035;-26
2023/10/13 06:46:28;;;;;;;3.13;2.50;;;18.50;88.40;;;;;;4972588;28;20141;-26
2023/10/13 06:48:59;;;;;;;3.58;2.65;;;19.30;81.80;;;;;;4971293;28;20068;-26
2023/10/13 06:51:30;;;;;;;2.90;2.30;;;;;;;;;;4973325;28;20053;-26
2023/10/13 06:53:57;;;;;;;2.88;2.50;;;19.10;79.30;;;;;;4971312;28;20496;-25
2023/10/13 06:56:28;;;;;;;2.90;2.20;;;19.20;73.70;;;;;;4984102;28;20408;-26
2023/10/13 06:58:59;;;;;;;3.17;2.40;;;19.30;89.50;;;;;;4991380;28;20054;-26
2023/10/13 07:01:26;;;;;;;2.40;2.00;;;;;;;;;;4987584;28;20475;-26
2023/10/13 07:03:53;;;;;;;3.10;2.20;;;;;;;;;;4971707;28;20502;-26
2023/10/13 07:06:21;;;;;;;2.83;2.30;;;19.50;71.10;;;;;;4973423;28;20507;-27
2023/10/13 07:08:52;;;;;;;3.05;1.92;;;;;;;;;;4973347;28;20050;-26
2023/10/13 07:11:32;;;;;;;2.25;2.00;;;20.10;88.80;;;;;;4973462;28;20432;-26
2023/10/13 07:14:00;;;;;;;2.10;1.90;;;19.10;76.90;;;;;;4973189;28;20080;-26
2023/10/13 07:16:35;;;;;;;2.00;1.80;;;18.60;87.70;;;;;;4973454;28;20055;-28
2023/10/13 07:19:05;;;;;;;2.50;2.08;;;19.50;88.30;;;;;;4971958;28;20055;-28
2023/10/13 07:21:34;;;;;;;2.83;2.10;;;20.00;84.40;;;;;;4972368;28;20389;-28
2023/10/13 07:24:11;;;;;;;2.47;1.95;;;19.90;88.20;;;;;;4968500;28;20598;-28
2023/10/13 07:26:42;;;;;;;1.77;1.63;;;20.40;89.10;;;;;;4970629;28;20053;-28
2023/10/13 07:29:09;;;;;;;2.47;1.85;;;20.00;70.40;;;;;;4971911;28;20043;-27
2023/10/13 07:31:37;;;;;;;2.53;1.90;;;19.80;87.70;;;;;;4971660;28;20102;-28
2023/10/13 07:34:12;;;;;;;2.67;1.77;;;20.10;70.30;;;;;;4972601;28;20405;-28
2023/10/13 07:36:43;;;;;;;;;;;20.10;70.60;;;;;;4970549;28;20057;-26
2023/10/13 07:39:21;;;;;;;4.25;1.75;;;19.70;74.40;;;;;;4969332;28;20395;-28
2023/10/13 07:41:53;;;;;;;3.83;1.60;;;20.10;78.20;;;;;;4972242;28;20141;-28
2023/10/13 07:44:24;;;;;;;1.80;1.50;;;20.10;87.50;;;;;;4972336;28;20046;-25
2023/10/13 07:46:58;;;;;;;1.80;1.58;;;20.20;87.50;;;;;;4972210;28;20070;-26
2023/10/13 07:49:30;;;;;;;2.80;1.75;;;20.30;70.00;;;;;;4971222;28;20100;-27
2023/10/13 07:52:00;;;;;;;2.88;1.70;;;21.30;88.30;;;;;;4970275;28;20062;-25
2023/10/13 07:54:27;;;;;;;1.92;1.60;;;19.80;87.40;;;;;;4972256;28;20652;-26
2023/10/13 07:56:55;;;;;;;3.22;1.52;;;20.80;76.50;;;;;;4986840;28;20124;-26
2023/10/13 07:59:23;;;;;;;2.42;1.63;;;;;;;;;;4978386;28;20081;-25
2023/10/13 08:02:12;;;;;;;2.20;1.75;;;;;;;;;;4972223;28;20138;-27
2023/10/13 08:04:39;;;;;;;2.58;1.65;;;20.00;87.30;;;;;;4970069;28;20488;-25
2023/10/13 08:07:13;;;;;;;2.90;1.50;;;19.70;87.60;;;;;;4970774;28;20093;-25
2023/10/13 08:09:41;;;;;;;3.42;1.58;;;20.40;69.60;;;;;;4969695;28;20562;-25
2023/10/13 08:12:11;;;;;;;3.67;1.70;;;20.50;75.20;;;;;;4971851;28;20057;-25
2023/10/13 08:14:40;;;;;;;3.15;1.67;;;;;;;;;;4969970;28;20043;-28
2023/10/13 08:17:10;;;;;;;2.13;1.70;;;20.40;69.50;;;;;;4971909;28;20106;-26
2023/10/13 08:19:45;;;;;;;2.75;1.70;;;;;;;;;;4969564;28;20062;-27
2023/10/13 08:22:25;;;;;;;2.47;1.60;;;20.00;83.50;;;;;;4971265;28;20054;-25
2023/10/13 08:27:48;;;;;;;3.92;1.58;;;20.40;75.70;;;;;;4970109;28;20456;-28
2023/10/13 08:30:28;;;;;;;2.55;1.92;;;20.40;71.30;;;;;;4969745;28;20050;-28
2023/10/13 08:32:56;;;;;;;2.50;1.60;;;;;;;;;;4968738;28;20122;-27
2023/10/13 08:35:33;;;;;;;2.22;1.50;;;19.50;79.70;;;;;;4971483;28;20053;-25
2023/10/13 08:38:13;;;;;;;2.15;1.70;;;20.20;87.30;;;;;;4966791;28;20101;-25
2023/10/13 08:43:39;;;;;;;2.90;1.80;;;20.70;87.20;;;;;;4992036;28;20050;-25
2023/10/13 08:46:06;;;;;;;3.65;1.60;;;20.20;87.10;;;;;;4991610;28;20463;-25
2023/10/13 08:48:34;;;;;;;1.85;1.55;;;;;;;;;;4991191;28;20052;-29
2023/10/13 08:51:10;;;;;;;3.25;1.70;;;20.10;87.00;;;;;;4991431;28;20078;-25
2023/10/13 08:53:51;;;;;;;3.28;1.70;;;21.20;87.70;;;;;;4985895;28;20050;-25
2023/10/13 08:56:31;;;;;;;2.20;1.60;;;21.20;77.50;;;;;;4972909;28;20137;-25
2023/10/13 09:01:48;;;;;;;2.47;1.80;;;;;;;;;;4952515;28;20430;-26
2023/10/13 09:04:27;;;;;;;2.10;1.70;;;20.70;87.90;;;;;;4952694;28;20047;-25
2023/10/13 09:07:08;;;;;;;2.47;1.90;;;20.00;72.20;;;;;;4980446;28;20049;-28
2023/10/13 09:13:00;;;;;;;3.80;2.45;;;;;;;;;;4930581;29;20086;-28
2023/10/13 09:15:59;;;;;;;5.30;1.80;;;19.60;75.10;;;;;;4966563;28;20130;-28
2023/10/13 09:18:41;;;;;;;2.95;1.88;;;19.70;87.60;;;;;;4962558;28;20181;-28
2023/10/13 09:21:29;;;;;;;3.15;1.75;;;20.00;70.10;;;;;;4977808;28;20051;-26
2023/10/13 09:24:16;;;;;;;4.32;1.80;;;;;;;;;;4955304;28;20054;-26
2023/10/13 09:26:44;;;;;;;4.03;1.80;;;21.10;88.50;;;;;;4954344;28;20090;-26
2023/10/13 09:29:18;;;;;;;3.15;1.80;;;20.00;88.00;;;;;;4970493;28;20135;-28
2023/10/13 09:31:48;;;;;;;3.42;1.75;;;20.90;74.70;;;;;;4955529;28;20051;-26
2023/10/13 09:34:22;;;;;;;5.90;1.92;;;20.30;72.00;;;;;;4968056;28;20102;-26
2023/10/13 09:36:55;;;;;;;3.00;2.13;;;;;;;;;;4974077;28;20056;-26
2023/10/13 09:39:34;;;;;;;3.63;1.77;;;19.70;88.40;;;;;;4974689;28;20047;-25
2023/10/13 09:42:03;;;;;;;3.20;1.70;;;20.00;70.50;;;;;;4975055;28;20058;-27
2023/10/13 09:44:31;;;;;;;2.92;2.13;;;19.60;87.60;;;;;;4972061;28;20043;-25
2023/10/13 09:47:07;;;;;;;3.80;1.90;;;19.50;70.40;;;;;;4964813;28;20503;-28
2023/10/13 09:49:44;;;;;;;3.65;2.47;;;;;;;;;;4964481;28;20101;-26
2023/10/13 09:52:18;;;;;;;2.25;1.90;;;19.90;70.60;;;;;;4955777;28;20113;-27
2023/10/13 09:54:48;;;;;;;4.70;2.05;;;18.30;69.80;;;;;;4955325;28;20051;-26
2023/10/13 09:57:18;;;;;;;5.15;2.28;;;21.00;88.80;;;;;;4981528;28;20575;-28
2023/10/13 09:59:52;;;;;;;3.78;1.83;;;16.40;68.80;;;;;;4961279;28;20123;-28
2023/10/13 10:02:25;;;;;;;2.35;1.80;;;19.40;88.10;;;;;;4962398;28;20047;-28
2023/10/13 10:04:52;;;;;;;3.17;1.95;;;19.90;70.70;;;;;;4972681;28;20389;-26
2023/10/13 10:07:24;;;;;;;3.65;1.80;;;19.50;87.90;;;;;;4972794;28;20053;-26
2023/10/13 10:09:57;;;;;;;2.70;2.00;;;19.80;88.20;;;;;;4957990;28;20053;-26
2023/10/13 10:12:30;;;;;;;3.67;2.30;;;20.50;71.50;;;;;;4965119;28;20407;-27
2023/10/13 10:15:10;;;;;;;3.33;2.15;;;19.70;88.20;;;;;;4974713;28;20082;-27
2023/10/13 10:17:40;;;;;;;3.58;2.17;;;20.90;88.80;;;;;;4970717;28;20083;-26
2023/10/13 10:20:14;;;;;;;6.07;2.25;;;19.60;81.90;;;;;;4955312;28;20043;-25
2023/10/13 10:22:48;;;;;;;4.65;2.00;;;;;;;;;;4973624;28;20530;-25
2023/10/13 10:25:24;;;;;;;3.30;2.05;;;;;;;;;;4973938;28;20057;-25
2023/10/13 10:27:57;;;;;;;4.30;2.35;;;20.20;81.30;;;;;;4973874;28;20098;-25
2023/10/13 10:30:25;;;;;;;6.50;2.58;;;19.30;88.70;;;;;;4974110;28;20051;-25
2023/10/13 10:32:59;;;;;;;5.60;2.45;;;19.90;71.40;;;;;;4974053;28;20143;-26
2023/10/13 10:35:29;;;;;;;5.20;2.10;;;19.80;88.70;;;;;;4974293;28;20046;-25
2023/10/13 10:38:11;;;;;;;4.68;2.15;;;19.90;80.90;;;;;;4973303;28;20148;-25
2023/10/13 10:40:51;;;;;;;2.85;1.90;;;19.60;88.50;;;;;;4973682;28;20149;-26
2023/10/13 10:43:20;;;;;;;4.60;2.20;;;20.10;74.70;;;;;;4968183;28;20067;-28
2023/10/13 10:45:48;;;;;;;4.50;2.28;;;20.10;76.80;;;;;;4964023;28;20083;-26
2023/10/13 10:48:18;;;;;;;4.65;2.50;;;19.40;74.10;;;;;;4964517;28;20062;-25
2023/10/13 10:50:45;;;;;;;4.63;2.30;;;;;;;;;;4956750;28;20051;-26
2023/10/13 10:53:12;;;;;;;4.30;2.17;;;20.00;88.40;;;;;;4954437;28;20053;-25
2023/10/13 10:55:38;;;;;;;4.43;2.03;;;19.30;88.40;;;;;;4963287;28;20100;-25
2023/10/13 10:58:06;;;;;;;5.90;2.20;;;;;;;;;;4992783;28;20054;-26
2023/10/13 11:00:45;;;;;;;4.43;2.50;;;19.80;88.20;;;;;;4993005;28;20767;-26
2023/10/13 11:03:12;;;;;;;4.05;2.17;;;19.90;88.80;;;;;;4977228;28;20110;-26
2023/10/13 11:05:46;;;;;;;4.10;2.30;;;19.90;71.30;;;;;;4972644;28;20478;-27
2023/10/13 11:08:27;;;;;;;5.07;2.72;;;19.90;88.60;;;;;;4970999;28;20055;-25
2023/10/13 11:10:54;;;;;;;3.97;2.13;;;20.00;82.60;;;;;;4972535;28;20058;-28
2023/10/13 11:13:22;;;;;;;5.88;2.22;;;;;;;;;;4973619;28;20129;-26
2023/10/13 11:15:50;;;;;;;4.40;2.30;;;19.90;71.30;;;;;;4973345;28;20480;-26
2023/10/13 11:18:20;;;;;;;4.93;2.40;;;20.60;85.60;;;;;;4967007;28;20051;-26
2023/10/13 11:20:53;;;;;;;5.30;2.40;;;20.10;88.80;;;;;;4973040;28;20054;-28
2023/10/13 11:23:25;;;;;;;5.35;2.40;;;18.80;82.40;;;;;;4971667;28;20058;-28
2023/10/13 11:25:58;;;;;;;4.38;2.30;;;19.90;71.40;;;;;;4966269;28;20138;-25
2023/10/13 11:28:28;;;;;;;8.00;2.70;;;19.50;89.10;;;;;;4953515;28;20436;-25
2023/10/13 11:30:58;;;;;;;3.97;2.80;;;20.60;71.80;;;;;;4968064;28;20049;-26
2023/10/13 11:33:27;;;;;;;4.57;2.22;;;19.50;87.20;;;;;;4973098;28;20106;-26
2023/10/13 11:35:57;;;;;;;4.13;2.50;;;;;;;;;;4972347;28;20050;-27
2023/10/13 11:38:28;;;;;;;5.97;2.20;;;19.40;71.20;;;;;;4972851;28;20058;-28
2023/10/13 11:41:15;;;;;;;6.07;2.67;;;20.80;89.20;;;;;;4973332;28;20109;-28
2023/10/13 11:49:31;;;;;;;7.00;2.70;;;;;;;;;;4953313;28;20054;-28
2023/10/13 11:52:09;;;;;;;4.60;2.60;;;;;;;;;;4953415;28;20488;-25
2023/10/13 11:54:41;;;;;;;5.63;2.80;;;20.50;89.20;;;;;;4953517;28;20051;-25
2023/10/13 11:57:08;;;;;;;4.82;2.70;;;;;;;;;;4985857;28;20125;-26
2023/10/13 11:59:41;;;;;;;6.90;3.05;;;20.20;77.50;;;;;;4991925;28;20054;-25
2023/10/13 12:04:54;;;;;;;3.70;2.63;;;;;;;;;;4973947;28;20039;-24
2023/10/13 12:07:23;;;;;;;6.70;2.92;;;20.40;89.10;;;;;;4954096;28;20726;-26
2023/10/13 12:10:06;;;;;;;5.15;2.80;;;19.70;87.60;;;;;;4953389;28;20054;-26
2023/10/13 12:12:40;;;;;;;8.35;3.45;;;20.40;89.80;;;;;;4953232;28;20491;-27
2023/10/13 12:15:13;;;;;;;5.73;3.13;;;20.00;89.70;;;;;;4971269;28;20054;-26
2023/10/13 12:17:44;;;;;;;4.80;2.90;;;19.90;71.50;;;;;;4965945;28;20827;-26
2023/10/13 12:20:18;;;;;;;7.13;3.15;;;19.80;71.50;;;;;;4963604;28;20082;-27
2023/10/13 12:22:54;;;;;;;8.98;3.00;;;19.80;88.80;;;;;;4965316;28;20101;-27
2023/10/13 12:25:34;;;;;;;4.90;2.53;;;;;;;;;;4972373;28;20094;-26
2023/10/13 12:28:12;;;;;;;6.53;3.22;;;19.60;88.60;;;;;;4971866;28;20055;-25
2023/10/13 12:30:49;;;;;;;5.82;3.03;;;20.00;75.70;;;;;;4972328;28;20496;-26
2023/10/13 12:33:24;;;;;;;4.55;3.05;;;19.90;71.60;;;;;;4971947;28;20046;-26
2023/10/13 12:36:03;;;;;;;7.13;3.00;;;21.00;89.50;;;;;;4971559;28;20047;-25
2023/10/13 12:38:50;;;;;;;5.10;2.95;;;19.10;88.50;;;;;;4971572;28;20055;-25
2023/10/13 12:49:57;;;;;;;6.65;2.95;;;19.80;71.70;;;;;;4970777;28;20047;-27
2023/10/13 12:52:31;;;;;;;5.18;2.60;;;;;;;;;;4964271;28;20054;-27
2023/10/13 12:55:05;;;;;;;6.72;3.13;;;;;;;;;;4972158;28;20549;-26
2023/10/13 12:57:33;;;;;;;6.00;3.10;;;;;;;;;;4975175;28;20122;-28
2023/10/13 13:00:00;;;;;;;5.47;2.90;;;;;;;;;;4975880;28;20047;-25
2023/10/13 13:02:29;;;;;;;6.45;3.10;;;20.00;77.90;;;;;;4978604;28;20120;-26
2023/10/13 13:05:05;;;;;;;7.55;3.75;;;20.00;89.10;;;;;;4994911;28;20138;-26
2023/10/13 13:07:42;;;;;;;5.57;2.88;;;20.10;89.50;;;;;;4989596;28;20055;-26
2023/10/13 13:10:11;;;;;;;5.95;3.10;;;20.00;77.00;;;;;;4970133;28;20055;-26
2023/10/13 13:12:38;;;;;;;7.28;3.33;;;20.20;88.40;;;;;;4974390;28;20039;-26
2023/10/13 13:15:08;;;;;;;7.07;2.97;;;20.20;89.50;;;;;;4974841;28;20471;-27
2023/10/13 13:17:36;;;;;;;4.72;3.13;;;20.40;74.20;;;;;;4973497;28;20046;-27
2023/10/13 13:20:11;;;;;;;5.22;3.15;;;18.70;88.50;;;;;;4974965;28;20054;-27
2023/10/13 13:22:38;;;;;;;5.15;3.17;;;19.90;72.00;;;;;;4974656;28;20121;-26
2023/10/13 13:25:08;;;;;;;7.25;3.30;;;20.20;89.40;;;;;;4975078;28;20054;-27
2023/10/13 13:27:36;;;;;;;5.57;2.90;;;19.10;89.20;;;;;;4974664;28;20097;-27
2023/10/13 13:30:11;;;;;;;9.23;3.90;;;19.50;72.90;;;;;;4972350;28;20114;-27
2023/10/13 13:32:38;;;;;;;8.77;3.83;;;19.80;82.00;;;;;;4974519;28;20135;-27
2023/10/13 13:35:07;;;;;;;8.60;3.38;;;19.90;72.00;;;;;;4974837;28;20051;-26
2023/10/13 13:37:34;;;;;;;5.25;3.25;;;19.80;84.70;;;;;;4971461;28;20051;-27
2023/10/13 13:40:13;;;;;;;6.93;3.75;;;20.10;89.80;;;;;;4972332;28;20089;-25
2023/10/13 13:42:40;;;;;;;6.47;3.38;;;20.10;72.10;;;;;;4975396;28;20051;-26
2023/10/13 13:45:12;;;;;;;6.28;3.20;;;19.90;72.00;;;;;;4963433;28;20069;-28
2023/10/13 13:47:38;;;;;;;5.93;3.33;;;20.00;83.60;;;;;;4955399;28;20110;-28
2023/10/13 13:50:17;;;;;;;5.63;3.65;;;19.90;72.00;;;;;;4972811;28;20055;-27
2023/10/13 13:52:46;;;;;;;6.43;3.13;;;;;;;;;;4966080;28;20520;-28
2023/10/13 13:55:17;;;;;;;8.25;3.35;;;18.90;78.10;;;;;;4968870;28;20057;-28
2023/10/13 13:57:44;;;;;;;6.35;3.63;;;;;;;;;;4955769;29;20551;-27
2023/10/13 14:00:16;;;;;;;5.93;3.30;;;20.50;76.40;;;;;;4961602;28;20050;-28
2023/10/13 14:02:47;;;;;;;5.03;3.60;;;20.20;89.90;;;;;;4975026;28;20051;-28
2023/10/13 14:05:16;;;;;;;8.48;3.33;;;19.90;72.00;;;;;;4974172;28;20078;-28
2023/10/13 14:07:48;;;;;;;7.97;3.60;;;19.80;90.00;;;;;;4967137;28;20443;-24
2023/10/13 14:10:31;;;;;;;7.68;3.58;;;;;;;;;;4968511;28;20046;-27
2023/10/13 14:13:06;;;;;;;7.18;3.67;;;19.60;85.00;;;;;;4958894;28;20496;-26
2023/10/13 14:15:39;;;;;;;7.32;3.58;;;20.40;90.00;;;;;;4958878;28;20447;-26
2023/10/13 14:18:12;;;;;;;10.45;3.40;;;20.20;84.10;;;;;;4973624;28;20093;-27
2023/10/13 14:20:41;;;;;;;8.25;4.13;;;19.90;72.00;;;;;;4974046;28;20094;-26
2023/10/13 14:23:11;;;;;;;4.57;3.67;;;20.10;86.50;;;;;;4974122;28;20130;-26
2023/10/13 14:25:38;;;;;;;7.78;3.90;;;20.50;89.90;;;;;;4973756;28;20416;-27
2023/10/13 14:28:06;;;;;;;6.22;3.92;;;19.80;72.00;;;;;;4971912;28;20472;-26
2023/10/13 14:30:33;;;;;;;8.98;4.18;;;19.80;90.00;;;;;;4973484;28;20492;-26
2023/10/13 14:33:00;;;;;;;6.35;3.70;;;20.50;77.40;;;;;;4972322;28;20455;-26
2023/10/13 14:35:28;;;;;;;5.65;3.75;;;;;;;;;;4973443;28;20137;-27
2023/10/13 14:37:57;;;;;;;5.60;3.40;;;19.80;72.10;;;;;;4971978;28;20055;-27
2023/10/13 14:40:23;;;;;;;8.38;4.50;;;20.50;83.50;;;;;;4972789;28;20469;-24
2023/10/13 14:42:50;;;;;;;6.00;3.80;;;19.80;79.90;;;;;;4973601;28;20061;-25
2023/10/13 14:45:17;;;;;;;7.45;4.55;;;19.10;89.10;;;;;;4973310;28;20086;-25
2023/10/13 14:47:44;;;;;;;9.60;3.90;;;;;;;;;;4973299;28;20133;-28
2023/10/13 14:50:17;;;;;;;6.25;3.85;;;19.70;89.40;;;;;;4973806;28;20101;-26
2023/10/13 14:52:44;;;;;;;9.45;4.15;;;;;;;;;;4973435;28;20089;-25
2023/10/13 14:55:18;;;;;;;6.47;4.32;;;20.20;90.00;;;;;;4974202;28;20051;-26
2023/10/13 14:57:46;;;;;;;9.03;4.33;;;;;;;;;;4989725;28;20457;-26
2023/10/13 15:00:14;;;;;;;7.47;4.40;;;19.90;79.40;;;;;;4973309;28;20314;-25
2023/10/13 15:02:42;;;;;;;7.05;3.80;;;19.20;80.90;;;;;;4973530;28;20054;-25
2023/10/13 15:05:16;;;;;;;7.28;4.05;;;20.60;72.60;;;;;;4973324;28;20227;-25
2023/10/13 15:07:44;;;;;;;8.73;4.13;;;19.80;72.20;;;;;;4972290;28;20055;-28
2023/10/13 15:10:15;;;;;;;8.68;3.85;;;20.10;89.70;;;;;;4973002;28;20062;-25
2023/10/13 15:12:43;;;;;;;7.35;4.32;;;19.90;89.60;;;;;;4972331;28;20055;-25
2023/10/13 15:15:13;;;;;;;9.15;4.45;;;20.10;89.80;;;;;;4972605;28;20051;-25
2023/10/13 15:17:40;;;;;;;7.43;4.35;;;20.00;89.80;;;;;;4972600;28;20046;-25
2023/10/13 15:20:09;;;;;;;11.57;4.20;;;19.90;72.30;;;;;;4973034;28;20046;-26
2023/10/13 15:22:37;;;;;;;9.90;4.43;;;19.50;90.10;;;;;;4972743;28;20929;-25
2023/10/13 15:25:16;;;;;;;12.18;4.57;;;19.80;72.30;;;;;;4973002;28;20046;-27
2023/10/13 15:27:50;;;;;;;8.23;4.57;;;19.80;72.40;;;;;;4971891;28;20061;-26
2023/10/13 15:30:26;;;;;;;8.93;4.32;;;;;;;;;;4973054;28;20066;-26